createdAt,value
2018-11-26T00:00:35.497Z,1.20
2018-11-26T00:03:08.035Z,0.83
2018-11-26T00:05:37.826Z,0.70
2018-11-26T00:08:09.844Z,0.80
2018-11-26T00:10:49.834Z,1.10
2018-11-26T00:13:19.010Z,1.27
2018-11-26T00:15:48.151Z,1.20
2018-11-26T00:18:17.227Z,1.00
2018-11-26T00:20:46.383Z,0.90
2018-11-26T00:23:15.473Z,0.90
2018-11-26T00:25:44.576Z,0.80
2018-11-26T00:28:13.714Z,0.93
2018-11-26T00:30:42.785Z,1.23
2018-11-26T00:33:11.875Z,1.00
2018-11-26T00:35:41.042Z,0.90
2018-11-26T00:38:10.144Z,0.90
2018-11-26T00:40:39.190Z,0.90
2018-11-26T00:43:08.377Z,1.00
2018-11-26T00:45:37.437Z,1.00
2018-11-26T00:48:06.515Z,1.00
2018-11-26T00:50:35.614Z,1.00
2018-11-26T00:53:11.232Z,1.43
2018-11-26T00:55:40.385Z,1.30
2018-11-26T00:58:09.523Z,1.00
2018-11-26T01:00:38.553Z,0.90
2018-11-26T01:03:07.710Z,0.80
2018-11-26T01:05:39.394Z,1.00
2018-11-26T01:08:08.526Z,1.00
2018-11-26T01:10:37.665Z,0.90
2018-11-26T01:13:07.422Z,1.00
2018-11-26T01:15:36.884Z,1.10
2018-11-26T01:18:06.525Z,0.90
2018-11-26T01:20:35.611Z,0.80
2018-11-26T01:23:04.837Z,0.80
2018-11-26T01:25:34.062Z,1.00
2018-11-26T01:28:03.185Z,0.90
2018-11-26T01:30:32.583Z,0.80
2018-11-26T01:33:01.737Z,0.83
2018-11-26T01:35:30.828Z,1.10
2018-11-26T01:37:59.987Z,0.80
2018-11-26T01:40:34.192Z,0.93
2018-11-26T01:43:03.320Z,0.90
2018-11-26T01:45:32.345Z,0.90
2018-11-26T01:48:01.512Z,1.03
2018-11-26T01:50:30.651Z,0.70
2018-11-26T01:52:59.722Z,0.87
2018-11-26T01:55:28.849Z,0.60
2018-11-26T01:57:57.933Z,0.77
2018-11-26T02:00:27.823Z,1.10
2018-11-26T02:02:56.931Z,0.67
2018-11-26T02:05:26.055Z,0.73
2018-11-26T02:07:55.160Z,0.80
2018-11-26T02:10:24.265Z,1.20
2018-11-26T02:12:53.607Z,0.50
2018-11-26T02:15:33.468Z,0.77
2018-11-26T02:18:02.683Z,0.90
2018-11-26T02:20:32.101Z,0.73
2018-11-26T02:23:01.195Z,0.70
2018-11-26T02:25:30.873Z,1.37
2018-11-26T02:27:59.935Z,1.17
2018-11-26T02:30:29.050Z,0.50
2018-11-26T02:32:58.268Z,0.93
2018-11-26T02:35:27.359Z,0.80
2018-11-26T02:37:56.545Z,0.90
2018-11-26T02:40:32.970Z,0.70
2018-11-26T02:43:02.043Z,0.57
2018-11-26T02:45:31.110Z,0.93
2018-11-26T02:48:00.225Z,1.30
2018-11-26T02:50:29.376Z,0.90
2018-11-26T02:52:58.503Z,0.70
2018-11-26T02:55:27.622Z,0.87
2018-11-26T02:57:56.700Z,0.60
2018-11-26T03:00:25.789Z,1.07
2018-11-26T03:02:55.306Z,1.00
2018-11-26T03:05:29.216Z,0.70
2018-11-26T03:07:58.389Z,0.90
2018-11-26T03:10:27.515Z,0.80
2018-11-26T03:12:56.614Z,1.10
2018-11-26T03:15:26.142Z,1.07
2018-11-26T03:17:55.242Z,0.70
2018-11-26T03:20:24.314Z,1.00
2018-11-26T03:22:53.496Z,0.83
2018-11-26T03:25:22.546Z,0.93
2018-11-26T03:27:51.613Z,0.93
2018-11-26T03:30:21.954Z,1.50
2018-11-26T03:32:51.135Z,0.97
2018-11-26T03:35:20.177Z,1.10
2018-11-26T03:37:49.311Z,1.23
2018-11-26T03:40:18.447Z,1.10
2018-11-26T03:42:47.535Z,1.07
2018-11-26T03:45:18.458Z,1.07
2018-11-26T03:47:47.502Z,1.13
2018-11-26T03:50:16.677Z,1.37
2018-11-26T03:52:46.664Z,1.27
2018-11-26T03:55:15.767Z,0.87
2018-11-26T03:57:44.863Z,1.20
2018-11-26T04:00:16.310Z,1.10
2018-11-26T04:02:45.469Z,0.80
2018-11-26T04:05:14.568Z,1.03
2018-11-26T04:07:43.990Z,1.13
2018-11-26T04:10:13.908Z,0.90
2018-11-26T04:12:42.973Z,0.80
2018-11-26T04:15:15.156Z,1.10
2018-11-26T04:17:44.219Z,0.80
2018-11-26T04:20:13.312Z,0.77
2018-11-26T04:22:42.439Z,1.20
2018-11-26T04:25:11.569Z,0.90
2018-11-26T04:27:40.682Z,0.90
2018-11-26T04:30:12.502Z,0.80
2018-11-26T04:32:41.733Z,0.90
2018-11-26T04:35:11.101Z,0.60
2018-11-26T04:37:40.236Z,0.40
2018-11-26T04:40:10.467Z,0.80
2018-11-26T04:42:39.680Z,1.00
2018-11-26T04:45:10.084Z,0.80
2018-11-26T04:47:39.774Z,0.70
2018-11-26T04:50:10.542Z,0.67
2018-11-26T04:52:40.014Z,0.70
2018-11-26T04:55:10.427Z,0.60
2018-11-26T04:57:42.548Z,0.80
2018-11-26T05:00:10.490Z,0.73
2018-11-26T05:02:39.648Z,0.70
2018-11-26T05:05:09.796Z,0.80
2018-11-26T05:07:38.919Z,0.70
2018-11-26T05:10:12.233Z,0.80
2018-11-26T05:12:41.386Z,0.60
2018-11-26T05:15:12.637Z,0.60
2018-11-26T05:17:41.732Z,0.57
2018-11-26T05:20:12.106Z,0.60
2018-11-26T05:22:41.295Z,0.73
2018-11-26T05:25:11.156Z,0.80
2018-11-26T05:27:40.269Z,0.70
2018-11-26T05:30:12.499Z,0.70
2018-11-26T05:32:41.696Z,0.70
2018-11-26T05:35:11.844Z,0.43
2018-11-26T05:37:40.967Z,0.53
2018-11-26T05:40:11.411Z,0.70
2018-11-26T05:42:40.705Z,0.80
2018-11-26T05:45:12.297Z,0.50
2018-11-26T05:47:41.737Z,0.57
2018-11-26T05:50:12.975Z,0.67
2018-11-26T05:52:42.287Z,0.60
2018-11-26T05:55:13.451Z,0.83
2018-11-26T05:57:42.611Z,0.70
2018-11-26T06:00:17.403Z,0.67
2018-11-26T06:02:46.549Z,0.67
2018-11-26T06:05:15.631Z,0.50
2018-11-26T06:07:44.695Z,0.57
2018-11-26T06:10:13.865Z,0.30
2018-11-26T06:12:42.988Z,0.80
2018-11-26T06:15:13.370Z,0.70
2018-11-26T06:17:43.232Z,0.50
2018-11-26T06:20:13.173Z,0.70
2018-11-26T06:22:46.301Z,0.70
2018-11-26T06:25:19.428Z,0.70
2018-11-26T06:27:48.687Z,0.60
2018-11-26T06:30:18.909Z,0.43
2018-11-26T06:32:48.050Z,0.70
2018-11-26T06:35:18.424Z,0.80
2018-11-26T06:37:47.537Z,0.63
2018-11-26T06:40:16.734Z,0.70
2018-11-26T06:42:45.812Z,0.50
2018-11-26T06:45:18.054Z,0.67
2018-11-26T06:47:47.190Z,0.60
2018-11-26T06:50:17.442Z,0.70
2018-11-26T06:52:46.778Z,0.60
2018-11-26T06:55:18.879Z,0.77
2018-11-26T06:57:47.993Z,0.50
2018-11-26T07:00:18.173Z,0.67
2018-11-26T07:02:47.357Z,0.83
2018-11-26T07:05:21.578Z,0.70
2018-11-26T07:07:50.729Z,0.90
2018-11-26T07:10:20.832Z,1.00
2018-11-26T07:12:49.928Z,1.03
2018-11-26T07:15:20.659Z,0.90
2018-11-26T07:17:49.882Z,0.70
2018-11-26T07:20:20.004Z,0.80
2018-11-26T07:22:49.140Z,0.87
2018-11-26T07:25:19.879Z,0.80
2018-11-26T07:27:51.385Z,0.80
2018-11-26T07:30:21.596Z,0.80
2018-11-26T07:32:50.702Z,0.80
2018-11-26T07:35:19.846Z,0.97
2018-11-26T07:37:48.950Z,0.90
2018-11-26T07:40:19.314Z,1.20
2018-11-26T07:42:56.036Z,1.37
2018-11-26T07:45:25.140Z,0.90
2018-11-26T07:47:54.177Z,1.80
2018-11-26T07:50:23.252Z,1.60
2018-11-26T07:52:52.367Z,3.90
2018-11-26T07:55:22.180Z,1.57
2018-11-26T07:57:51.297Z,1.13
2018-11-26T08:00:21.307Z,1.00
2018-11-26T08:02:50.799Z,0.97
2018-11-26T08:05:21.025Z,1.10
2018-11-26T08:07:50.144Z,1.30
2018-11-26T08:10:22.240Z,2.20
2018-11-26T08:12:53.273Z,1.30
2018-11-26T08:15:23.497Z,1.03
2018-11-26T08:17:52.584Z,0.77
2018-11-26T08:20:21.655Z,0.70
2018-11-26T08:22:50.759Z,1.20
2018-11-26T08:25:21.239Z,1.10
2018-11-26T08:27:50.775Z,1.23
2018-11-26T08:30:23.965Z,0.93
2018-11-26T08:32:55.257Z,1.20
2018-11-26T08:35:24.422Z,0.87
2018-11-26T08:37:57.616Z,1.20
2018-11-26T08:40:29.997Z,1.00
2018-11-26T08:43:07.167Z,1.47
2018-11-26T08:45:37.211Z,1.33
2018-11-26T08:48:11.920Z,1.23
2018-11-26T08:50:41.065Z,1.37
2018-11-26T08:53:10.103Z,1.50
2018-11-26T08:55:39.192Z,1.63
2018-11-26T08:58:08.276Z,1.50
2018-11-26T09:00:37.411Z,1.50
2018-11-26T09:03:10.715Z,1.60
2018-11-26T09:05:44.997Z,1.37
2018-11-26T09:08:14.642Z,1.10
2018-11-26T09:10:43.733Z,0.83
2018-11-26T09:13:12.829Z,0.70
2018-11-26T09:15:42.107Z,0.90
2018-11-26T09:18:11.182Z,1.13
2018-11-26T09:20:40.271Z,1.30
2018-11-26T09:23:09.793Z,1.10
2018-11-26T09:25:38.899Z,1.27
2018-11-26T09:28:08.015Z,1.10
2018-11-26T09:30:37.156Z,0.83
2018-11-26T09:33:06.519Z,0.97
2018-11-26T09:35:35.614Z,1.30
2018-11-26T09:38:04.776Z,1.20
2018-11-26T09:40:33.971Z,1.00
2018-11-26T09:43:03.037Z,1.30
2018-11-26T09:45:32.213Z,1.40
2018-11-26T09:48:01.306Z,1.60
2018-11-26T09:50:30.379Z,1.50
2018-11-26T09:52:59.532Z,1.50
2018-11-26T09:55:28.594Z,1.50
2018-11-26T09:57:57.666Z,1.50
2018-11-26T10:00:26.771Z,1.33
2018-11-26T10:02:55.860Z,1.60
2018-11-26T10:05:25.962Z,1.60
2018-11-26T10:07:55.111Z,1.70
2018-11-26T10:10:30.611Z,1.00
2018-11-26T10:12:59.695Z,1.37
2018-11-26T10:15:29.094Z,2.20
2018-11-26T10:17:58.195Z,2.37
2018-11-26T10:20:27.328Z,2.60
2018-11-26T10:22:56.396Z,2.40
2018-11-26T10:25:25.439Z,1.73
2018-11-26T10:27:54.562Z,1.60
2018-11-26T10:30:24.462Z,1.50
2018-11-26T10:32:54.227Z,1.37
2018-11-26T10:35:23.420Z,1.47
2018-11-26T10:37:52.540Z,0.93
2018-11-26T10:40:23.829Z,1.20
2018-11-26T10:42:52.934Z,0.90
2018-11-26T10:45:22.903Z,0.90
2018-11-26T10:47:52.056Z,1.10
2018-11-26T10:50:22.737Z,0.90
2018-11-26T10:52:53.932Z,0.80
2018-11-26T10:55:38.192Z,1.00
2018-11-26T10:58:07.614Z,0.77
2018-11-26T11:00:39.585Z,1.00
2018-11-26T11:03:08.747Z,0.87
2018-11-26T11:05:38.290Z,1.30
2018-11-26T11:08:07.912Z,0.97
2018-11-26T11:10:37.062Z,1.07
2018-11-26T11:13:07.108Z,0.90
2018-11-26T11:15:36.469Z,0.80
2018-11-26T11:18:06.666Z,1.10
2018-11-26T11:20:35.982Z,0.80
2018-11-26T11:23:05.032Z,0.83
2018-11-26T11:25:34.161Z,0.60
2018-11-26T11:28:03.226Z,0.90
2018-11-26T11:30:32.346Z,1.23
2018-11-26T11:35:29.640Z,0.90
2018-11-26T11:37:58.725Z,0.70
2018-11-26T11:40:30.549Z,0.60
2018-11-26T11:43:00.427Z,0.90
2018-11-26T11:45:30.201Z,0.80
2018-11-26T11:47:59.301Z,0.80
2018-11-26T11:50:28.425Z,0.50
2018-11-26T11:52:57.775Z,0.90
2018-11-26T11:55:27.437Z,0.90
2018-11-26T11:57:56.511Z,1.00
2018-11-26T12:00:31.255Z,0.90
2018-11-26T12:03:01.032Z,0.73
2018-11-26T12:05:30.123Z,1.10
2018-11-26T12:07:59.283Z,0.90
2018-11-26T12:10:28.414Z,1.00
2018-11-26T12:12:57.528Z,1.10
2018-11-26T12:15:26.671Z,0.80
2018-11-26T12:17:55.756Z,0.77
2018-11-26T12:20:24.855Z,0.80
2018-11-26T12:22:54.018Z,0.80
2018-11-26T12:25:23.143Z,0.67
2018-11-26T12:27:52.212Z,0.70
2018-11-26T12:30:25.394Z,0.90
2018-11-26T12:32:54.536Z,0.80
2018-11-26T12:35:23.617Z,0.70
2018-11-26T12:37:52.996Z,1.10
2018-11-26T12:40:23.005Z,0.70
2018-11-26T12:42:53.406Z,0.90
2018-11-26T12:45:24.573Z,1.10
2018-11-26T12:47:53.729Z,1.60
2018-11-26T12:50:22.849Z,1.30
2018-11-26T12:52:51.907Z,1.33
2018-11-26T12:55:21.912Z,1.30
2018-11-26T12:57:51.737Z,1.00
2018-11-26T13:00:23.892Z,1.20
2018-11-26T13:02:55.086Z,0.70
2018-11-26T13:05:24.221Z,1.17
2018-11-26T13:07:53.359Z,0.90
2018-11-26T13:10:23.270Z,0.83
2018-11-26T13:12:52.821Z,1.07
2018-11-26T13:15:25.237Z,1.30
2018-11-26T13:17:54.397Z,2.67
2018-11-26T13:20:25.395Z,1.30
2018-11-26T13:22:54.881Z,1.30
2018-11-26T13:25:26.164Z,1.13
2018-11-26T13:27:56.418Z,1.80
2018-11-26T13:30:29.489Z,1.40
2018-11-26T13:33:00.737Z,1.53
2018-11-26T13:35:29.845Z,2.10
2018-11-26T13:37:58.996Z,1.30
2018-11-26T13:40:28.131Z,1.50
2018-11-26T13:42:57.220Z,1.60
2018-11-26T13:45:31.687Z,1.97
2018-11-26T13:48:00.778Z,1.90
2018-11-26T13:50:32.549Z,1.90
2018-11-26T13:53:01.736Z,1.63
2018-11-26T13:55:30.835Z,1.53
2018-11-26T13:57:59.953Z,1.67
2018-11-26T14:00:29.055Z,1.80
2018-11-26T14:02:58.156Z,1.40
2018-11-26T14:05:27.283Z,1.30
2018-11-26T14:07:56.387Z,1.30
2018-11-26T14:10:26.910Z,1.07
2018-11-26T14:13:02.312Z,1.03
2018-11-26T14:15:31.394Z,1.00
2018-11-26T14:18:00.460Z,0.80
2018-11-26T14:20:29.597Z,0.80
2018-11-26T14:22:58.685Z,1.00
2018-11-26T14:25:27.779Z,1.03
2018-11-26T14:27:56.958Z,1.10
2018-11-26T14:30:27.628Z,1.43
2018-11-26T14:32:56.978Z,2.13
2018-11-26T14:35:26.175Z,1.40
2018-11-26T14:37:57.673Z,1.33
2018-11-26T14:40:29.025Z,1.20
2018-11-26T14:42:58.223Z,1.40
2018-11-26T14:45:27.389Z,1.30
2018-11-26T14:47:56.505Z,1.70
2018-11-26T14:50:25.584Z,1.50
2018-11-26T14:52:54.722Z,1.77
2018-11-26T14:55:26.141Z,1.97
2018-11-26T14:57:55.207Z,1.63
2018-11-26T15:00:24.319Z,1.77
2018-11-26T15:02:53.416Z,1.83
2018-11-26T15:05:22.546Z,2.03
2018-11-26T15:07:51.664Z,1.80
2018-11-26T15:10:23.039Z,2.20
2018-11-26T15:12:52.187Z,2.40
2018-11-26T15:15:24.904Z,2.20
2018-11-26T15:17:54.050Z,2.37
2018-11-26T15:20:25.632Z,1.90
2018-11-26T15:22:55.747Z,2.07
2018-11-26T15:25:33.310Z,2.13
2018-11-26T15:28:10.585Z,2.00
2018-11-26T15:30:39.740Z,1.90
2018-11-26T15:33:09.176Z,1.40
2018-11-26T15:35:41.101Z,1.63
2018-11-26T15:38:10.232Z,1.43
2018-11-26T15:40:39.662Z,1.73
2018-11-26T15:43:08.542Z,1.63
2018-11-26T15:45:38.639Z,1.40
2018-11-26T15:48:10.473Z,1.77
2018-11-26T15:50:39.596Z,1.40
2018-11-26T15:53:09.539Z,1.47
2018-11-26T15:55:38.644Z,1.33
2018-11-26T15:58:08.752Z,1.33
2018-11-26T16:00:37.868Z,1.47
2018-11-26T16:03:07.316Z,1.43
2018-11-26T16:05:36.790Z,1.30
2018-11-26T16:08:10.116Z,1.37
2018-11-26T16:10:39.298Z,1.23
2018-11-26T16:13:09.468Z,1.30
2018-11-26T16:15:40.926Z,7.57
2018-11-26T16:18:13.624Z,3.00
2018-11-26T16:20:42.821Z,3.03
2018-11-26T16:23:12.185Z,1.60
2018-11-26T16:25:43.541Z,1.90
2018-11-26T16:28:16.288Z,2.27
2018-11-26T16:30:45.382Z,1.90
2018-11-26T16:33:14.451Z,1.90
2018-11-26T16:35:43.545Z,1.80
2018-11-26T16:38:13.388Z,1.90
2018-11-26T16:40:42.503Z,2.20
2018-11-26T16:43:11.674Z,2.23
2018-11-26T16:45:40.932Z,2.17
2018-11-26T16:48:10.002Z,2.60
2018-11-26T16:50:39.283Z,2.10
2018-11-26T16:53:09.021Z,2.60
2018-11-26T16:55:38.101Z,2.60
2018-11-26T16:58:07.458Z,2.60
2018-11-26T17:00:36.616Z,2.67
2018-11-26T17:03:06.041Z,2.67
2018-11-26T17:05:37.310Z,2.23
2018-11-26T17:08:10.547Z,2.47
2018-11-26T17:10:39.754Z,2.53
2018-11-26T17:13:08.993Z,2.33
2018-11-26T17:15:38.221Z,2.60
2018-11-26T17:18:08.229Z,2.63
2018-11-26T17:20:38.282Z,2.17
2018-11-26T17:23:07.893Z,2.47
2018-11-26T17:25:37.052Z,2.43
2018-11-26T17:28:06.609Z,1.70
2018-11-26T17:30:36.040Z,1.77
2018-11-26T17:33:06.386Z,1.50
2018-11-26T17:35:35.487Z,1.60
2018-11-26T17:38:04.618Z,1.77
2018-11-26T17:40:33.738Z,1.80
2018-11-26T17:43:02.800Z,1.40
2018-11-26T17:45:31.956Z,1.57
2018-11-26T17:48:01.430Z,1.70
2018-11-26T17:50:36.878Z,1.70
2018-11-26T17:53:08.127Z,1.30
2018-11-26T17:55:47.167Z,1.63
2018-11-26T17:58:16.470Z,1.20
2018-11-26T18:00:47.285Z,1.50
2018-11-26T18:03:16.440Z,1.10
2018-11-26T18:05:45.604Z,1.17
2018-11-26T18:08:16.395Z,1.23
2018-11-26T18:10:45.512Z,1.27
2018-11-26T18:13:14.614Z,1.50
2018-11-26T18:15:43.803Z,1.30
2018-11-26T18:18:16.342Z,1.20
2018-11-26T18:20:45.947Z,1.17
2018-11-26T18:23:15.099Z,1.00
2018-11-26T18:25:44.578Z,1.30
2018-11-26T18:28:15.064Z,1.10
2018-11-26T18:30:48.494Z,1.40
2018-11-26T18:33:17.651Z,1.10
2018-11-26T18:35:47.500Z,1.70
2018-11-26T18:38:16.722Z,1.57
2018-11-26T18:40:47.191Z,1.17
2018-11-26T18:43:16.268Z,1.30
2018-11-26T18:45:45.447Z,0.90
2018-11-26T18:48:15.616Z,1.30
2018-11-26T18:50:44.730Z,1.10
2018-11-26T18:53:13.781Z,1.37
2018-11-26T18:55:43.391Z,1.33
2018-11-26T18:58:12.535Z,1.50
2018-11-26T19:00:47.338Z,1.50
2018-11-26T19:03:21.396Z,1.60
2018-11-26T19:05:52.713Z,1.80
2018-11-26T19:08:21.789Z,1.77
2018-11-26T19:10:52.904Z,1.80
2018-11-26T19:13:26.095Z,1.93
2018-11-26T19:15:58.313Z,1.90
2018-11-26T19:18:27.725Z,1.73
2018-11-26T19:20:56.792Z,1.43
2018-11-26T19:23:26.033Z,1.90
2018-11-26T19:25:55.605Z,1.87
2018-11-26T19:28:24.710Z,1.50
2018-11-26T19:30:53.886Z,1.50
2018-11-26T19:33:23.026Z,1.60
2018-11-26T19:35:52.103Z,1.83
2018-11-26T19:38:21.190Z,2.23
2018-11-26T19:40:50.306Z,2.17
2018-11-26T19:43:19.453Z,1.90
2018-11-26T19:45:48.671Z,2.10
2018-11-26T19:48:17.893Z,1.87
2018-11-26T19:50:46.977Z,1.70
2018-11-26T19:53:16.107Z,1.73
2018-11-26T19:55:45.252Z,1.57
2018-11-26T19:58:14.419Z,2.30
2018-11-26T20:00:43.613Z,2.00
2018-11-26T20:03:15.448Z,1.80
2018-11-26T20:05:57.331Z,2.33
2018-11-26T20:08:26.400Z,1.70
2018-11-26T20:10:55.524Z,2.57
2018-11-26T20:13:24.680Z,3.93
2018-11-26T20:15:54.383Z,1.87
2018-11-26T20:18:28.339Z,2.03
2018-11-26T20:20:52.952Z,1.87
2018-11-26T20:23:22.057Z,2.20
2018-11-26T20:25:52.319Z,2.50
2018-11-26T20:28:21.045Z,1.93
2018-11-26T20:30:50.133Z,1.70
2018-11-26T20:33:19.327Z,2.23
2018-11-26T20:35:48.500Z,2.33
2018-11-26T20:38:17.726Z,2.53
2018-11-26T20:40:46.821Z,2.10
2018-11-26T20:43:16.492Z,2.40
2018-11-26T20:45:47.487Z,2.73
2018-11-26T20:48:16.670Z,2.50
2018-11-26T20:50:48.911Z,2.50
2018-11-26T20:53:18.761Z,2.20
2018-11-26T20:55:47.911Z,2.30
2018-11-26T20:58:17.161Z,2.23
2018-11-26T21:00:46.290Z,7.10
2018-11-26T21:03:15.380Z,2.80
2018-11-26T21:05:44.513Z,4.13
2018-11-26T21:08:14.115Z,2.70
2018-11-26T21:10:43.214Z,3.43
2018-11-26T21:13:16.782Z,2.00
2018-11-26T21:15:41.703Z,2.30
2018-11-26T21:18:12.212Z,2.83
2018-11-26T21:20:50.299Z,2.70
2018-11-26T21:23:26.009Z,1.90
2018-11-26T21:25:56.244Z,1.87
2018-11-26T21:28:25.359Z,4.47
2018-11-26T21:30:54.443Z,2.73
2018-11-26T21:33:23.578Z,3.00
2018-11-26T21:35:52.676Z,2.20
2018-11-26T21:38:21.785Z,1.67
2018-11-26T21:40:50.936Z,2.33
2018-11-26T21:43:20.064Z,2.20
2018-11-26T21:45:54.203Z,2.13
2018-11-26T21:48:23.334Z,1.80
2018-11-26T21:50:52.403Z,1.80
2018-11-26T21:53:21.536Z,1.80
2018-11-26T21:55:51.044Z,1.87
2018-11-26T21:58:20.302Z,1.30
2018-11-26T22:00:50.518Z,1.70
2018-11-26T22:03:19.654Z,2.00
2018-11-26T22:05:49.290Z,2.40
2018-11-26T22:08:18.567Z,1.93
2018-11-26T22:10:47.689Z,1.80
2018-11-26T22:13:19.105Z,1.57
2018-11-26T22:15:48.141Z,1.47
2018-11-26T22:18:17.435Z,1.60
2018-11-26T22:20:46.655Z,1.43
2018-11-26T22:23:15.767Z,2.17
2018-11-26T22:25:44.907Z,1.43
2018-11-26T22:28:14.058Z,1.60
2018-11-26T22:30:43.133Z,1.57
2018-11-26T22:33:12.211Z,1.60
2018-11-26T22:35:41.359Z,1.87
2018-11-26T22:38:10.453Z,1.83
2018-11-26T22:40:39.584Z,1.80
2018-11-26T22:43:08.777Z,1.80
2018-11-26T22:45:37.881Z,1.50
2018-11-26T22:48:10.165Z,1.70
2018-11-26T22:50:40.421Z,1.83
2018-11-26T22:53:09.980Z,1.60
2018-11-26T22:55:39.133Z,1.73
2018-11-26T22:58:10.491Z,1.90
2018-11-26T23:00:51.871Z,1.70
2018-11-26T23:03:23.107Z,1.77
2018-11-26T23:05:52.251Z,1.80
2018-11-26T23:08:21.278Z,1.70
2018-11-26T23:10:50.390Z,2.27
2018-11-26T23:13:20.410Z,1.60
2018-11-26T23:15:49.563Z,1.47
2018-11-26T23:18:18.838Z,1.60
2018-11-26T23:20:47.990Z,2.03
2018-11-26T23:23:17.094Z,1.70
2018-11-26T23:25:46.237Z,1.53
2018-11-26T23:28:15.342Z,1.67
2018-11-26T23:30:44.374Z,1.20
2018-11-26T23:33:13.527Z,1.90
2018-11-26T23:35:42.647Z,1.80
2018-11-26T23:38:11.762Z,2.00
2018-11-26T23:40:40.889Z,1.70
2018-11-26T23:43:10.232Z,1.40
2018-11-26T23:45:39.326Z,1.30
2018-11-26T23:48:08.443Z,1.40
2018-11-26T23:50:37.763Z,1.47
2018-11-26T23:53:07.363Z,1.60
2018-11-26T23:55:36.492Z,1.37
2018-11-26T23:58:05.631Z,1.80
